sensor_id;sensor_type;location;lat;lon;timestamp;P1;durP1;ratioP1;P2;durP2;ratioP2
5923;SDS011;2987;50.884;14.818;2023-06-22T00:01:56;10.20;;;9.20;;
5923;SDS011;2987;50.884;14.818;2023-06-22T00:04:22;10.30;;;9.30;;
5923;SDS011;2987;50.884;14.818;2023-06-22T00:06:48;14.93;;;10.27;;
5923;SDS011;2987;50.884;14.818;2023-06-22T00:09:14;11.20;;;9.87;;
5923;SDS011;2987;50.884;14.818;2023-06-22T00:11:39;10.37;;;9.33;;
5923;SDS011;2987;50.884;14.818;2023-06-22T00:14:05;10.40;;;9.10;;
5923;SDS011;2987;50.884;14.818;2023-06-22T00:16:32;10.03;;;9.03;;
5923;SDS011;2987;50.884;14.818;2023-06-22T00:18:59;10.50;;;8.80;;
5923;SDS011;2987;50.884;14.818;2023-06-22T00:21:26;20.70;;;9.33;;
5923;SDS011;2987;50.884;14.818;2023-06-22T00:23:52;14.30;;;9.23;;
5923;SDS011;2987;50.884;14.818;2023-06-22T00:26:19;9.80;;;8.80;;
5923;SDS011;2987;50.884;14.818;2023-06-22T00:28:46;17.40;;;9.27;;
5923;SDS011;2987;50.884;14.818;2023-06-22T00:31:13;11.00;;;9.70;;
5923;SDS011;2987;50.884;14.818;2023-06-22T00:36:05;10.30;;;9.30;;
5923;SDS011;2987;50.884;14.818;2023-06-22T00:38:33;8.90;;;8.00;;
5923;SDS011;2987;50.884;14.818;2023-06-22T00:40:59;11.73;;;8.57;;
5923;SDS011;2987;50.884;14.818;2023-06-22T00:43:26;9.57;;;8.50;;
5923;SDS011;2987;50.884;14.818;2023-06-22T00:45:52;11.30;;;8.50;;
5923;SDS011;2987;50.884;14.818;2023-06-22T00:48:22;9.20;;;8.40;;
5923;SDS011;2987;50.884;14.818;2023-06-22T00:50:48;10.00;;;9.00;;
5923;SDS011;2987;50.884;14.818;2023-06-22T00:53:16;15.77;;;9.73;;
5923;SDS011;2987;50.884;14.818;2023-06-22T00:55:44;12.10;;;9.13;;
5923;SDS011;2987;50.884;14.818;2023-06-22T00:58:16;13.67;;;9.67;;
5923;SDS011;2987;50.884;14.818;2023-06-22T01:00:47;10.43;;;9.37;;
5923;SDS011;2987;50.884;14.818;2023-06-22T01:03:13;9.77;;;8.77;;
5923;SDS011;2987;50.884;14.818;2023-06-22T01:05:42;11.23;;;9.30;;
5923;SDS011;2987;50.884;14.818;2023-06-22T01:08:25;14.53;;;10.23;;
5923;SDS011;2987;50.884;14.818;2023-06-22T01:13:56;10.03;;;9.03;;
5923;SDS011;2987;50.884;14.818;2023-06-22T01:16:31;9.80;;;8.90;;
5923;SDS011;2987;50.884;14.818;2023-06-22T01:39:38;10.53;;;9.43;;
5923;SDS011;2987;50.884;14.818;2023-06-22T01:42:05;10.40;;;9.37;;
5923;SDS011;2987;50.884;14.818;2023-06-22T01:44:32;16.53;;;10.07;;
5923;SDS011;2987;50.884;14.818;2023-06-22T01:46:59;10.33;;;9.20;;
5923;SDS011;2987;50.884;14.818;2023-06-22T01:49:25;15.83;;;10.40;;
5923;SDS011;2987;50.884;14.818;2023-06-22T01:51:51;12.73;;;10.70;;
5923;SDS011;2987;50.884;14.818;2023-06-22T01:54:20;11.43;;;8.83;;
5923;SDS011;2987;50.884;14.818;2023-06-22T01:56:46;13.57;;;9.70;;
5923;SDS011;2987;50.884;14.818;2023-06-22T01:59:14;13.50;;;9.00;;
5923;SDS011;2987;50.884;14.818;2023-06-22T02:04:20;11.80;;;9.50;;
5923;SDS011;2987;50.884;14.818;2023-06-22T02:06:53;11.57;;;9.73;;
5923;SDS011;2987;50.884;14.818;2023-06-22T02:09:22;10.77;;;9.73;;
5923;SDS011;2987;50.884;14.818;2023-06-22T02:11:53;12.47;;;9.60;;
5923;SDS011;2987;50.884;14.818;2023-06-22T02:14:22;15.07;;;9.77;;
5923;SDS011;2987;50.884;14.818;2023-06-22T02:16:50;10.23;;;9.23;;
5923;SDS011;2987;50.884;14.818;2023-06-22T02:19:17;11.20;;;9.93;;
5923;SDS011;2987;50.884;14.818;2023-06-22T02:21:47;12.30;;;9.80;;
5923;SDS011;2987;50.884;14.818;2023-06-22T02:24:13;11.23;;;9.70;;
5923;SDS011;2987;50.884;14.818;2023-06-22T02:26:39;11.40;;;9.27;;
5923;SDS011;2987;50.884;14.818;2023-06-22T02:29:08;11.20;;;9.93;;
5923;SDS011;2987;50.884;14.818;2023-06-22T02:31:33;13.47;;;9.73;;
5923;SDS011;2987;50.884;14.818;2023-06-22T02:33:59;11.50;;;9.77;;
5923;SDS011;2987;50.884;14.818;2023-06-22T02:36:25;12.60;;;9.87;;
5923;SDS011;2987;50.884;14.818;2023-06-22T02:38:55;10.47;;;9.47;;
5923;SDS011;2987;50.884;14.818;2023-06-22T02:41:24;10.20;;;9.20;;
5923;SDS011;2987;50.884;14.818;2023-06-22T02:43:50;10.77;;;9.50;;
5923;SDS011;2987;50.884;14.818;2023-06-22T02:46:18;10.43;;;9.43;;
5923;SDS011;2987;50.884;14.818;2023-06-22T02:48:45;10.90;;;9.80;;
5923;SDS011;2987;50.884;14.818;2023-06-22T02:51:11;11.70;;;9.93;;
5923;SDS011;2987;50.884;14.818;2023-06-22T02:53:37;14.60;;;10.57;;
5923;SDS011;2987;50.884;14.818;2023-06-22T02:56:04;17.10;;;9.90;;
5923;SDS011;2987;50.884;14.818;2023-06-22T02:58:34;11.87;;;10.67;;
5923;SDS011;2987;50.884;14.818;2023-06-22T03:01:07;12.00;;;9.67;;
5923;SDS011;2987;50.884;14.818;2023-06-22T03:03:34;14.63;;;10.83;;
5923;SDS011;2987;50.884;14.818;2023-06-22T03:06:00;13.20;;;10.30;;
5923;SDS011;2987;50.884;14.818;2023-06-22T03:08:28;11.00;;;9.90;;
5923;SDS011;2987;50.884;14.818;2023-06-22T03:10:55;12.97;;;10.20;;
5923;SDS011;2987;50.884;14.818;2023-06-22T03:13:21;10.53;;;9.50;;
5923;SDS011;2987;50.884;14.818;2023-06-22T03:15:47;11.17;;;10.00;;
5923;SDS011;2987;50.884;14.818;2023-06-22T03:18:13;10.80;;;9.70;;
5923;SDS011;2987;50.884;14.818;2023-06-22T03:20:41;12.27;;;10.17;;
5923;SDS011;2987;50.884;14.818;2023-06-22T03:23:08;10.83;;;9.73;;
5923;SDS011;2987;50.884;14.818;2023-06-22T03:25:34;15.13;;;10.57;;
5923;SDS011;2987;50.884;14.818;2023-06-22T03:28:01;16.43;;;10.37;;
5923;SDS011;2987;50.884;14.818;2023-06-22T03:30:27;16.20;;;11.70;;
5923;SDS011;2987;50.884;14.818;2023-06-22T03:32:53;13.90;;;11.37;;
5923;SDS011;2987;50.884;14.818;2023-06-22T03:35:19;15.73;;;11.27;;
5923;SDS011;2987;50.884;14.818;2023-06-22T03:37:46;19.07;;;11.20;;
5923;SDS011;2987;50.884;14.818;2023-06-22T03:40:12;16.03;;;12.23;;
5923;SDS011;2987;50.884;14.818;2023-06-22T03:42:38;13.33;;;11.83;;
5923;SDS011;2987;50.884;14.818;2023-06-22T03:45:05;12.33;;;10.87;;
5923;SDS011;2987;50.884;14.818;2023-06-22T03:47:32;13.40;;;11.90;;
5923;SDS011;2987;50.884;14.818;2023-06-22T03:49:58;17.33;;;12.23;;
5923;SDS011;2987;50.884;14.818;2023-06-22T03:52:24;16.40;;;10.63;;
5923;SDS011;2987;50.884;14.818;2023-06-22T03:54:50;14.30;;;11.50;;
5923;SDS011;2987;50.884;14.818;2023-06-22T03:57:16;14.03;;;11.27;;
5923;SDS011;2987;50.884;14.818;2023-06-22T03:59:42;13.47;;;11.50;;
5923;SDS011;2987;50.884;14.818;2023-06-22T04:02:08;14.17;;;11.47;;
5923;SDS011;2987;50.884;14.818;2023-06-22T04:04:34;15.47;;;10.60;;
5923;SDS011;2987;50.884;14.818;2023-06-22T04:07:00;15.30;;;11.67;;
5923;SDS011;2987;50.884;14.818;2023-06-22T04:09:26;13.03;;;10.73;;
5923;SDS011;2987;50.884;14.818;2023-06-22T04:11:52;13.63;;;10.43;;
5923;SDS011;2987;50.884;14.818;2023-06-22T04:14:18;17.00;;;12.97;;
5923;SDS011;2987;50.884;14.818;2023-06-22T04:16:44;16.43;;;12.03;;
5923;SDS011;2987;50.884;14.818;2023-06-22T04:19:10;16.40;;;12.87;;
5923;SDS011;2987;50.884;14.818;2023-06-22T04:21:42;17.73;;;12.43;;
5923;SDS011;2987;50.884;14.818;2023-06-22T04:24:10;12.83;;;11.23;;
5923;SDS011;2987;50.884;14.818;2023-06-22T04:26:37;18.10;;;11.27;;
5923;SDS011;2987;50.884;14.818;2023-06-22T04:29:07;14.73;;;12.40;;
5923;SDS011;2987;50.884;14.818;2023-06-22T04:31:34;13.17;;;11.93;;
5923;SDS011;2987;50.884;14.818;2023-06-22T04:34:00;15.67;;;11.40;;
5923;SDS011;2987;50.884;14.818;2023-06-22T04:36:26;13.73;;;11.87;;
5923;SDS011;2987;50.884;14.818;2023-06-22T04:38:56;14.30;;;12.77;;
5923;SDS011;2987;50.884;14.818;2023-06-22T04:41:22;17.23;;;13.77;;
5923;SDS011;2987;50.884;14.818;2023-06-22T04:43:49;15.53;;;13.90;;
5923;SDS011;2987;50.884;14.818;2023-06-22T04:46:19;15.00;;;13.30;;
5923;SDS011;2987;50.884;14.818;2023-06-22T04:48:45;14.67;;;13.10;;
5923;SDS011;2987;50.884;14.818;2023-06-22T04:51:11;14.70;;;12.73;;
5923;SDS011;2987;50.884;14.818;2023-06-22T04:53:37;13.87;;;12.47;;
5923;SDS011;2987;50.884;14.818;2023-06-22T04:56:07;13.60;;;12.27;;
5923;SDS011;2987;50.884;14.818;2023-06-22T04:58:33;15.10;;;11.73;;
5923;SDS011;2987;50.884;14.818;2023-06-22T05:00:59;13.20;;;11.90;;
5923;SDS011;2987;50.884;14.818;2023-06-22T05:03:25;13.17;;;11.97;;
5923;SDS011;2987;50.884;14.818;2023-06-22T05:05:52;14.03;;;11.93;;
5923;SDS011;2987;50.884;14.818;2023-06-22T05:08:19;13.97;;;12.47;;
5923;SDS011;2987;50.884;14.818;2023-06-22T05:10:45;13.67;;;12.20;;
5923;SDS011;2987;50.884;14.818;2023-06-22T05:13:10;13.67;;;11.60;;
5923;SDS011;2987;50.884;14.818;2023-06-22T05:15:36;12.70;;;11.40;;
5923;SDS011;2987;50.884;14.818;2023-06-22T05:18:05;14.53;;;11.70;;
5923;SDS011;2987;50.884;14.818;2023-06-22T05:20:31;15.07;;;11.47;;
5923;SDS011;2987;50.884;14.818;2023-06-22T05:22:59;11.90;;;10.63;;
5923;SDS011;2987;50.884;14.818;2023-06-22T05:25:25;12.83;;;11.53;;
5923;SDS011;2987;50.884;14.818;2023-06-22T05:27:52;15.57;;;12.73;;
5923;SDS011;2987;50.884;14.818;2023-06-22T05:30:18;11.83;;;10.50;;
5923;SDS011;2987;50.884;14.818;2023-06-22T05:32:44;11.97;;;10.87;;
5923;SDS011;2987;50.884;14.818;2023-06-22T05:35:10;14.50;;;10.33;;
5923;SDS011;2987;50.884;14.818;2023-06-22T05:37:35;11.30;;;10.30;;
5923;SDS011;2987;50.884;14.818;2023-06-22T05:40:01;12.93;;;10.87;;
5923;SDS011;2987;50.884;14.818;2023-06-22T05:42:28;12.60;;;11.40;;
5923;SDS011;2987;50.884;14.818;2023-06-22T05:44:53;13.87;;;10.63;;
5923;SDS011;2987;50.884;14.818;2023-06-22T05:47:20;12.83;;;11.13;;
5923;SDS011;2987;50.884;14.818;2023-06-22T05:49:48;14.43;;;11.53;;
5923;SDS011;2987;50.884;14.818;2023-06-22T05:52:14;12.07;;;10.93;;
5923;SDS011;2987;50.884;14.818;2023-06-22T05:54:40;12.27;;;10.83;;
5923;SDS011;2987;50.884;14.818;2023-06-22T05:57:07;12.67;;;11.37;;
5923;SDS011;2987;50.884;14.818;2023-06-22T05:59:33;13.07;;;10.57;;
5923;SDS011;2987;50.884;14.818;2023-06-22T06:01:59;18.57;;;12.47;;
5923;SDS011;2987;50.884;14.818;2023-06-22T06:04:24;12.20;;;11.03;;
5923;SDS011;2987;50.884;14.818;2023-06-22T06:06:50;16.07;;;11.70;;
5923;SDS011;2987;50.884;14.818;2023-06-22T06:09:16;11.97;;;10.77;;
5923;SDS011;2987;50.884;14.818;2023-06-22T06:11:43;15.47;;;12.50;;
5923;SDS011;2987;50.884;14.818;2023-06-22T06:16:35;11.80;;;10.60;;
5923;SDS011;2987;50.884;14.818;2023-06-22T06:19:01;13.20;;;11.73;;
5923;SDS011;2987;50.884;14.818;2023-06-22T06:21:27;14.90;;;11.20;;
5923;SDS011;2987;50.884;14.818;2023-06-22T06:23:53;12.60;;;11.33;;
5923;SDS011;2987;50.884;14.818;2023-06-22T06:26:19;15.50;;;11.83;;
5923;SDS011;2987;50.884;14.818;2023-06-22T06:28:53;13.43;;;10.93;;
5923;SDS011;2987;50.884;14.818;2023-06-22T06:31:20;16.50;;;11.27;;
5923;SDS011;2987;50.884;14.818;2023-06-22T06:33:46;12.67;;;10.83;;
5923;SDS011;2987;50.884;14.818;2023-06-22T06:36:12;11.70;;;10.60;;
5923;SDS011;2987;50.884;14.818;2023-06-22T06:38:38;15.73;;;11.57;;
5923;SDS011;2987;50.884;14.818;2023-06-22T06:41:04;12.90;;;11.17;;
5923;SDS011;2987;50.884;14.818;2023-06-22T06:43:30;11.63;;;10.20;;
5923;SDS011;2987;50.884;14.818;2023-06-22T06:45:56;17.57;;;11.00;;
5923;SDS011;2987;50.884;14.818;2023-06-22T06:48:22;12.10;;;9.90;;
5923;SDS011;2987;50.884;14.818;2023-06-22T06:50:48;13.73;;;10.17;;
5923;SDS011;2987;50.884;14.818;2023-06-22T06:55:39;11.60;;;9.70;;
5923;SDS011;2987;50.884;14.818;2023-06-22T06:58:06;17.13;;;10.67;;
5923;SDS011;2987;50.884;14.818;2023-06-22T07:00:33;14.20;;;10.00;;
5923;SDS011;2987;50.884;14.818;2023-06-22T07:03:02;15.53;;;10.70;;
5923;SDS011;2987;50.884;14.818;2023-06-22T07:05:28;21.17;;;10.63;;
5923;SDS011;2987;50.884;14.818;2023-06-22T07:07:54;15.63;;;10.70;;
5923;SDS011;2987;50.884;14.818;2023-06-22T07:10:20;13.80;;;9.50;;
5923;SDS011;2987;50.884;14.818;2023-06-22T07:12:46;14.30;;;9.60;;
5923;SDS011;2987;50.884;14.818;2023-06-22T07:15:13;14.10;;;9.93;;
5923;SDS011;2987;50.884;14.818;2023-06-22T07:17:39;15.60;;;10.07;;
5923;SDS011;2987;50.884;14.818;2023-06-22T07:20:06;20.63;;;9.97;;
5923;SDS011;2987;50.884;14.818;2023-06-22T07:22:36;35.93;;;14.07;;
5923;SDS011;2987;50.884;14.818;2023-06-22T07:25:02;21.97;;;11.30;;
5923;SDS011;2987;50.884;14.818;2023-06-22T07:27:35;31.00;;;10.30;;
5923;SDS011;2987;50.884;14.818;2023-06-22T07:32:32;24.03;;;10.70;;
5923;SDS011;2987;50.884;14.818;2023-06-22T07:34:58;20.77;;;10.33;;
5923;SDS011;2987;50.884;14.818;2023-06-22T07:37:24;15.00;;;9.80;;
5923;SDS011;2987;50.884;14.818;2023-06-22T07:39:50;16.13;;;9.93;;
5923;SDS011;2987;50.884;14.818;2023-06-22T07:42:16;20.53;;;10.30;;
5923;SDS011;2987;50.884;14.818;2023-06-22T07:44:44;22.40;;;10.10;;
5923;SDS011;2987;50.884;14.818;2023-06-22T07:47:10;23.03;;;9.20;;
5923;SDS011;2987;50.884;14.818;2023-06-22T07:49:36;23.57;;;9.63;;
5923;SDS011;2987;50.884;14.818;2023-06-22T07:52:02;22.90;;;10.10;;
5923;SDS011;2987;50.884;14.818;2023-06-22T07:54:28;26.37;;;10.30;;
5923;SDS011;2987;50.884;14.818;2023-06-22T07:56:54;31.93;;;10.87;;
5923;SDS011;2987;50.884;14.818;2023-06-22T07:59:20;33.60;;;11.50;;
5923;SDS011;2987;50.884;14.818;2023-06-22T08:01:46;21.00;;;10.40;;
5923;SDS011;2987;50.884;14.818;2023-06-22T08:04:14;18.97;;;9.30;;
5923;SDS011;2987;50.884;14.818;2023-06-22T08:06:41;18.07;;;9.67;;
5923;SDS011;2987;50.884;14.818;2023-06-22T08:09:07;16.93;;;9.23;;
5923;SDS011;2987;50.884;14.818;2023-06-22T08:11:33;15.97;;;9.27;;
5923;SDS011;2987;50.884;14.818;2023-06-22T08:13:59;17.87;;;9.37;;
5923;SDS011;2987;50.884;14.818;2023-06-22T08:16:25;16.37;;;9.20;;
5923;SDS011;2987;50.884;14.818;2023-06-22T08:18:51;11.53;;;8.40;;
5923;SDS011;2987;50.884;14.818;2023-06-22T08:21:17;11.07;;;8.73;;
5923;SDS011;2987;50.884;14.818;2023-06-22T08:23:43;17.90;;;9.67;;
5923;SDS011;2987;50.884;14.818;2023-06-22T08:26:09;17.50;;;9.70;;
5923;SDS011;2987;50.884;14.818;2023-06-22T08:28:35;14.40;;;8.53;;
5923;SDS011;2987;50.884;14.818;2023-06-22T08:31:02;11.77;;;8.60;;
5923;SDS011;2987;50.884;14.818;2023-06-22T08:33:29;11.23;;;8.60;;
5923;SDS011;2987;50.884;14.818;2023-06-22T08:35:55;20.23;;;8.83;;
5923;SDS011;2987;50.884;14.818;2023-06-22T08:38:23;12.80;;;8.47;;
5923;SDS011;2987;50.884;14.818;2023-06-22T08:40:49;11.93;;;8.53;;
5923;SDS011;2987;50.884;14.818;2023-06-22T08:43:15;10.40;;;8.50;;
5923;SDS011;2987;50.884;14.818;2023-06-22T08:45:41;17.30;;;9.30;;
5923;SDS011;2987;50.884;14.818;2023-06-22T08:48:07;11.73;;;8.03;;
5923;SDS011;2987;50.884;14.818;2023-06-22T08:50:33;12.43;;;8.23;;
5923;SDS011;2987;50.884;14.818;2023-06-22T08:52:59;11.67;;;7.93;;
5923;SDS011;2987;50.884;14.818;2023-06-22T08:55:25;14.97;;;8.10;;
5923;SDS011;2987;50.884;14.818;2023-06-22T08:57:51;11.57;;;8.43;;
5923;SDS011;2987;50.884;14.818;2023-06-22T09:00:17;9.37;;;8.13;;
5923;SDS011;2987;50.884;14.818;2023-06-22T09:02:45;14.33;;;7.77;;
5923;SDS011;2987;50.884;14.818;2023-06-22T09:05:12;12.57;;;7.17;;
5923;SDS011;2987;50.884;14.818;2023-06-22T09:07:39;12.23;;;7.60;;
5923;SDS011;2987;50.884;14.818;2023-06-22T09:10:06;11.63;;;7.70;;
5923;SDS011;2987;50.884;14.818;2023-06-22T09:12:33;12.73;;;7.10;;
5923;SDS011;2987;50.884;14.818;2023-06-22T09:14:59;11.80;;;7.20;;
5923;SDS011;2987;50.884;14.818;2023-06-22T09:17:26;16.37;;;7.20;;
5923;SDS011;2987;50.884;14.818;2023-06-22T09:19:52;10.83;;;7.20;;
5923;SDS011;2987;50.884;14.818;2023-06-22T09:22:19;10.93;;;7.57;;
5923;SDS011;2987;50.884;14.818;2023-06-22T09:24:45;9.10;;;7.32;;
5923;SDS011;2987;50.884;14.818;2023-06-22T09:29:37;12.83;;;7.60;;
5923;SDS011;2987;50.884;14.818;2023-06-22T09:32:03;9.57;;;7.10;;
5923;SDS011;2987;50.884;14.818;2023-06-22T09:34:29;7.53;;;6.80;;
5923;SDS011;2987;50.884;14.818;2023-06-22T09:36:56;10.82;;;7.03;;
5923;SDS011;2987;50.884;14.818;2023-06-22T09:39:25;9.68;;;6.80;;
5923;SDS011;2987;50.884;14.818;2023-06-22T09:41:51;15.55;;;7.40;;
5923;SDS011;2987;50.884;14.818;2023-06-22T09:44:18;10.13;;;6.95;;
5923;SDS011;2987;50.884;14.818;2023-06-22T09:46:44;12.02;;;7.22;;
5923;SDS011;2987;50.884;14.818;2023-06-22T09:49:10;13.02;;;6.47;;
5923;SDS011;2987;50.884;14.818;2023-06-22T09:51:36;11.50;;;6.90;;
5923;SDS011;2987;50.884;14.818;2023-06-22T09:54:02;7.70;;;6.93;;
5923;SDS011;2987;50.884;14.818;2023-06-22T09:56:28;12.75;;;7.18;;
5923;SDS011;2987;50.884;14.818;2023-06-22T09:58:56;9.87;;;6.50;;
5923;SDS011;2987;50.884;14.818;2023-06-22T10:01:22;13.38;;;6.90;;
5923;SDS011;2987;50.884;14.818;2023-06-22T10:03:48;11.70;;;6.20;;
5923;SDS011;2987;50.884;14.818;2023-06-22T10:06:15;8.98;;;6.72;;
5923;SDS011;2987;50.884;14.818;2023-06-22T10:08:41;9.27;;;6.70;;
5923;SDS011;2987;50.884;14.818;2023-06-22T10:11:07;9.65;;;6.60;;
5923;SDS011;2987;50.884;14.818;2023-06-22T10:13:33;8.80;;;6.70;;
5923;SDS011;2987;50.884;14.818;2023-06-22T10:15:59;13.57;;;7.50;;
5923;SDS011;2987;50.884;14.818;2023-06-22T10:18:25;11.95;;;6.35;;
5923;SDS011;2987;50.884;14.818;2023-06-22T10:20:51;11.13;;;6.63;;
5923;SDS011;2987;50.884;14.818;2023-06-22T10:23:19;11.55;;;6.65;;
5923;SDS011;2987;50.884;14.818;2023-06-22T10:25:46;10.45;;;6.93;;
5923;SDS011;2987;50.884;14.818;2023-06-22T10:28:12;9.65;;;6.47;;
5923;SDS011;2987;50.884;14.818;2023-06-22T10:30:39;8.93;;;6.78;;
5923;SDS011;2987;50.884;14.818;2023-06-22T10:33:07;10.20;;;6.88;;
5923;SDS011;2987;50.884;14.818;2023-06-22T10:35:34;9.77;;;6.63;;
5923;SDS011;2987;50.884;14.818;2023-06-22T10:38:03;6.97;;;6.25;;
5923;SDS011;2987;50.884;14.818;2023-06-22T10:40:29;11.48;;;6.00;;
5923;SDS011;2987;50.884;14.818;2023-06-22T10:42:55;10.57;;;6.47;;
5923;SDS011;2987;50.884;14.818;2023-06-22T10:45:21;10.52;;;6.28;;
5923;SDS011;2987;50.884;14.818;2023-06-22T10:47:47;7.43;;;6.00;;
5923;SDS011;2987;50.884;14.818;2023-06-22T10:50:13;7.25;;;6.55;;
5923;SDS011;2987;50.884;14.818;2023-06-22T10:52:40;8.13;;;6.80;;
5923;SDS011;2987;50.884;14.818;2023-06-22T10:55:07;7.00;;;6.38;;
5923;SDS011;2987;50.884;14.818;2023-06-22T10:57:34;8.50;;;6.45;;
5923;SDS011;2987;50.884;14.818;2023-06-22T11:00:02;8.40;;;6.75;;
5923;SDS011;2987;50.884;14.818;2023-06-22T11:02:31;6.30;;;5.80;;
5923;SDS011;2987;50.884;14.818;2023-06-22T11:04:57;7.65;;;6.40;;
5923;SDS011;2987;50.884;14.818;2023-06-22T11:07:26;9.60;;;6.60;;
5923;SDS011;2987;50.884;14.818;2023-06-22T11:09:54;7.40;;;6.57;;
5923;SDS011;2987;50.884;14.818;2023-06-22T11:12:20;7.28;;;6.57;;
5923;SDS011;2987;50.884;14.818;2023-06-22T11:14:46;8.63;;;6.70;;
5923;SDS011;2987;50.884;14.818;2023-06-22T11:17:12;7.38;;;6.65;;
5923;SDS011;2987;50.884;14.818;2023-06-22T11:19:38;7.05;;;6.45;;
5923;SDS011;2987;50.884;14.818;2023-06-22T11:22:04;8.32;;;7.18;;
5923;SDS011;2987;50.884;14.818;2023-06-22T11:24:31;7.72;;;6.95;;
5923;SDS011;2987;50.884;14.818;2023-06-22T11:26:58;8.07;;;6.63;;
5923;SDS011;2987;50.884;14.818;2023-06-22T11:29:24;8.20;;;7.07;;
5923;SDS011;2987;50.884;14.818;2023-06-22T11:31:49;7.32;;;6.72;;
5923;SDS011;2987;50.884;14.818;2023-06-22T11:34:15;7.88;;;6.93;;
5923;SDS011;2987;50.884;14.818;2023-06-22T11:36:42;13.27;;;7.30;;
5923;SDS011;2987;50.884;14.818;2023-06-22T11:39:09;12.73;;;7.78;;
5923;SDS011;2987;50.884;14.818;2023-06-22T11:41:35;9.48;;;7.60;;
5923;SDS011;2987;50.884;14.818;2023-06-22T11:44:01;10.00;;;7.55;;
5923;SDS011;2987;50.884;14.818;2023-06-22T11:46:29;13.43;;;7.90;;
5923;SDS011;2987;50.884;14.818;2023-06-22T11:48:57;7.88;;;7.07;;
5923;SDS011;2987;50.884;14.818;2023-06-22T11:51:23;8.48;;;7.40;;
5923;SDS011;2987;50.884;14.818;2023-06-22T11:53:49;8.98;;;7.45;;
5923;SDS011;2987;50.884;14.818;2023-06-22T11:56:15;8.13;;;7.28;;
5923;SDS011;2987;50.884;14.818;2023-06-22T11:58:41;7.70;;;6.85;;
5923;SDS011;2987;50.884;14.818;2023-06-22T12:01:07;10.23;;;7.57;;
5923;SDS011;2987;50.884;14.818;2023-06-22T12:03:33;8.60;;;6.78;;
5923;SDS011;2987;50.884;14.818;2023-06-22T12:05:59;7.55;;;6.75;;
5923;SDS011;2987;50.884;14.818;2023-06-22T12:08:25;7.88;;;7.15;;
5923;SDS011;2987;50.884;14.818;2023-06-22T12:10:51;10.35;;;6.70;;
5923;SDS011;2987;50.884;14.818;2023-06-22T12:13:19;8.98;;;7.20;;
5923;SDS011;2987;50.884;14.818;2023-06-22T12:15:45;9.88;;;7.55;;
5923;SDS011;2987;50.884;14.818;2023-06-22T12:18:11;7.50;;;6.80;;
5923;SDS011;2987;50.884;14.818;2023-06-22T12:20:39;8.35;;;6.70;;
5923;SDS011;2987;50.884;14.818;2023-06-22T12:23:05;7.80;;;7.07;;
5923;SDS011;2987;50.884;14.818;2023-06-22T12:25:31;7.55;;;6.82;;
5923;SDS011;2987;50.884;14.818;2023-06-22T12:27:57;7.88;;;7.10;;
5923;SDS011;2987;50.884;14.818;2023-06-22T12:30:23;10.73;;;7.18;;
5923;SDS011;2987;50.884;14.818;2023-06-22T12:32:49;8.55;;;6.93;;
5923;SDS011;2987;50.884;14.818;2023-06-22T12:35:16;8.07;;;7.18;;
5923;SDS011;2987;50.884;14.818;2023-06-22T12:37:42;14.23;;;7.50;;
5923;SDS011;2987;50.884;14.818;2023-06-22T12:40:09;8.32;;;7.50;;
5923;SDS011;2987;50.884;14.818;2023-06-22T12:42:35;9.90;;;7.55;;
5923;SDS011;2987;50.884;14.818;2023-06-22T12:45:02;9.88;;;7.63;;
5923;SDS011;2987;50.884;14.818;2023-06-22T12:47:28;10.75;;;7.47;;
5923;SDS011;2987;50.884;14.818;2023-06-22T12:49:54;7.90;;;7.20;;
5923;SDS011;2987;50.884;14.818;2023-06-22T12:52:20;9.63;;;7.65;;
5923;SDS011;2987;50.884;14.818;2023-06-22T12:54:46;12.52;;;6.97;;
5923;SDS011;2987;50.884;14.818;2023-06-22T12:57:13;9.20;;;7.28;;
5923;SDS011;2987;50.884;14.818;2023-06-22T12:59:39;8.60;;;7.22;;
5923;SDS011;2987;50.884;14.818;2023-06-22T13:02:05;7.97;;;7.15;;
5923;SDS011;2987;50.884;14.818;2023-06-22T13:04:31;9.60;;;7.85;;
5923;SDS011;2987;50.884;14.818;2023-06-22T13:09:23;9.77;;;7.20;;
5923;SDS011;2987;50.884;14.818;2023-06-22T13:11:49;8.13;;;7.32;;
5923;SDS011;2987;50.884;14.818;2023-06-22T13:14:15;8.20;;;7.47;;
5923;SDS011;2987;50.884;14.818;2023-06-22T13:16:42;12.38;;;8.05;;
5923;SDS011;2987;50.884;14.818;2023-06-22T13:19:08;11.13;;;8.77;;
5923;SDS011;2987;50.884;14.818;2023-06-22T13:21:34;8.93;;;7.53;;
5923;SDS011;2987;50.884;14.818;2023-06-22T13:24:01;8.20;;;7.50;;
5923;SDS011;2987;50.884;14.818;2023-06-22T13:26:27;7.68;;;6.97;;
5923;SDS011;2987;50.884;14.818;2023-06-22T13:28:54;8.27;;;7.47;;
5923;SDS011;2987;50.884;14.818;2023-06-22T13:31:20;7.82;;;7.20;;
5923;SDS011;2987;50.884;14.818;2023-06-22T13:33:47;8.55;;;7.47;;
5923;SDS011;2987;50.884;14.818;2023-06-22T13:36:14;12.68;;;8.25;;
5923;SDS011;2987;50.884;14.818;2023-06-22T13:38:40;10.75;;;7.85;;
5923;SDS011;2987;50.884;14.818;2023-06-22T13:41:06;10.60;;;8.07;;
5923;SDS011;2987;50.884;14.818;2023-06-22T13:43:32;13.45;;;8.15;;
5923;SDS011;2987;50.884;14.818;2023-06-22T13:45:58;9.07;;;7.10;;
5923;SDS011;2987;50.884;14.818;2023-06-22T13:48:24;10.60;;;7.47;;
5923;SDS011;2987;50.884;14.818;2023-06-22T13:50:52;11.80;;;7.82;;
5923;SDS011;2987;50.884;14.818;2023-06-22T13:53:18;8.05;;;7.30;;
5923;SDS011;2987;50.884;14.818;2023-06-22T13:55:45;9.93;;;7.30;;
5923;SDS011;2987;50.884;14.818;2023-06-22T13:58:12;11.98;;;8.52;;
5923;SDS011;2987;50.884;14.818;2023-06-22T14:00:38;7.70;;;7.00;;
5923;SDS011;2987;50.884;14.818;2023-06-22T14:03:04;13.18;;;7.63;;
5923;SDS011;2987;50.884;14.818;2023-06-22T14:05:30;15.60;;;7.07;;
5923;SDS011;2987;50.884;14.818;2023-06-22T14:10:22;10.75;;;8.10;;
5923;SDS011;2987;50.884;14.818;2023-06-22T14:12:48;8.60;;;7.20;;
5923;SDS011;2987;50.884;14.818;2023-06-22T14:15:14;10.48;;;7.55;;
5923;SDS011;2987;50.884;14.818;2023-06-22T14:17:40;8.88;;;7.60;;
5923;SDS011;2987;50.884;14.818;2023-06-22T14:20:06;10.88;;;7.28;;
5923;SDS011;2987;50.884;14.818;2023-06-22T14:22:33;7.63;;;6.90;;
5923;SDS011;2987;50.884;14.818;2023-06-22T14:25:01;8.98;;;7.10;;
5923;SDS011;2987;50.884;14.818;2023-06-22T14:27:27;8.18;;;7.35;;
5923;SDS011;2987;50.884;14.818;2023-06-22T14:29:54;7.85;;;6.95;;
5923;SDS011;2987;50.884;14.818;2023-06-22T14:32:19;10.23;;;7.15;;
5923;SDS011;2987;50.884;14.818;2023-06-22T14:34:45;10.05;;;7.00;;
5923;SDS011;2987;50.884;14.818;2023-06-22T14:37:11;10.35;;;7.80;;
5923;SDS011;2987;50.884;14.818;2023-06-22T14:39:38;9.75;;;7.82;;
5923;SDS011;2987;50.884;14.818;2023-06-22T14:42:05;9.25;;;7.15;;
5923;SDS011;2987;50.884;14.818;2023-06-22T14:44:32;11.50;;;6.75;;
5923;SDS011;2987;50.884;14.818;2023-06-22T14:46:59;10.60;;;7.78;;
5923;SDS011;2987;50.884;14.818;2023-06-22T14:49:24;7.88;;;7.07;;
5923;SDS011;2987;50.884;14.818;2023-06-22T14:51:50;10.18;;;7.75;;
5923;SDS011;2987;50.884;14.818;2023-06-22T14:54:16;8.55;;;7.63;;
5923;SDS011;2987;50.884;14.818;2023-06-22T14:56:42;7.82;;;7.13;;
5923;SDS011;2987;50.884;14.818;2023-06-22T14:59:09;7.93;;;7.13;;
5923;SDS011;2987;50.884;14.818;2023-06-22T15:01:35;9.55;;;7.60;;
5923;SDS011;2987;50.884;14.818;2023-06-22T15:04:01;13.20;;;7.65;;
5923;SDS011;2987;50.884;14.818;2023-06-22T15:06:28;9.35;;;7.53;;
5923;SDS011;2987;50.884;14.818;2023-06-22T15:08:53;11.00;;;7.78;;
5923;SDS011;2987;50.884;14.818;2023-06-22T15:11:19;8.63;;;7.65;;
5923;SDS011;2987;50.884;14.818;2023-06-22T15:13:46;14.98;;;7.38;;
5923;SDS011;2987;50.884;14.818;2023-06-22T15:16:12;10.48;;;7.88;;
5923;SDS011;2987;50.884;14.818;2023-06-22T15:18:38;10.52;;;7.57;;
5923;SDS011;2987;50.884;14.818;2023-06-22T15:21:06;12.75;;;8.55;;
5923;SDS011;2987;50.884;14.818;2023-06-22T15:23:32;8.93;;;8.13;;
5923;SDS011;2987;50.884;14.818;2023-06-22T15:26:00;9.07;;;7.88;;
5923;SDS011;2987;50.884;14.818;2023-06-22T15:28:28;9.82;;;8.00;;